CheckWX is a tool to help pilots better visualize weather data.  It is not intended as a substitute for an official pre-flight weather briefing.

14:29:40 UTC

EGJB METAR
Guernsey Airport
Saint Peter Port, Guernsey
Current

40 mins ago

EGJB 251350Z 27008KT 9999 FEW012 20/16 Q1019
Observed
Aug-25 @ 13:50 UTC
Wind
  • 270° at 8 KTS
Visibility
10,000+ meters
Flight Rules
VFR
Cloud Levels
  • Few at 1,200' AGL
Temperature
20°C / 68°F
Dewpoint
16°C / 61°F
Humidity
78%
Altimeter
30.09" Hg
Pressure
1018.92 hPa
Previous

1 hour ago

EGJB 251320Z 28008KT 240V310 9999 VCSH FEW012 19/15 Q1019
Observed
Aug-25 @ 13:20 UTC
Wind
  • 280° at 8 KTS
Visibility
10,000+ meters
Flight Rules
VFR
Cloud Levels
  • Few at 1,200' AGL
Temperature
19°C / 66°F
Dewpoint
15°C / 59°F
Humidity
78%
Altimeter
30.09" Hg
Pressure
1018.92 hPa
Previous

2 hours ago

EGJB 251250Z 28007KT 230V320 9999 VCSH FEW012 20/15 Q1019
Observed
Aug-25 @ 12:50 UTC
Wind
  • 280° at 7 KTS
Visibility
10,000+ meters
Flight Rules
VFR
Cloud Levels
  • Few at 1,200' AGL
Temperature
20°C / 68°F
Dewpoint
15°C / 59°F
Humidity
73%
Altimeter
30.09" Hg
Pressure
1018.92 hPa